sensor_id;sensor_type;location;lat;lon;timestamp;P1;durP1;ratioP1;P2;durP2;ratioP2
22652;SDS011;11493;43.344;26.226;2022-11-20T00:01:21;8.20;;;6.65;;
22652;SDS011;11493;43.344;26.226;2022-11-20T00:03:53;8.18;;;6.57;;
22652;SDS011;11493;43.344;26.226;2022-11-20T00:06:22;8.10;;;6.20;;
22652;SDS011;11493;43.344;26.226;2022-11-20T00:08:50;7.47;;;6.75;;
22652;SDS011;11493;43.344;26.226;2022-11-20T00:11:19;11.50;;;8.13;;
22652;SDS011;11493;43.344;26.226;2022-11-20T00:13:50;10.25;;;7.75;;
22652;SDS011;11493;43.344;26.226;2022-11-20T00:16:19;7.30;;;6.65;;
22652;SDS011;11493;43.344;26.226;2022-11-20T00:18:49;9.15;;;6.70;;
22652;SDS011;11493;43.344;26.226;2022-11-20T00:21:18;7.93;;;7.05;;
22652;SDS011;11493;43.344;26.226;2022-11-20T00:23:56;15.35;;;7.97;;
22652;SDS011;11493;43.344;26.226;2022-11-20T00:26:25;22.25;;;10.63;;
22652;SDS011;11493;43.344;26.226;2022-11-20T00:28:54;17.70;;;11.23;;
22652;SDS011;11493;43.344;26.226;2022-11-20T00:31:24;16.63;;;8.90;;
22652;SDS011;11493;43.344;26.226;2022-11-20T00:33:52;18.88;;;7.63;;
22652;SDS011;11493;43.344;26.226;2022-11-20T00:36:20;12.05;;;6.82;;
22652;SDS011;11493;43.344;26.226;2022-11-20T00:38:53;17.67;;;5.95;;
22652;SDS011;11493;43.344;26.226;2022-11-20T00:41:22;13.38;;;5.75;;
22652;SDS011;11493;43.344;26.226;2022-11-20T00:43:51;7.00;;;4.95;;
22652;SDS011;11493;43.344;26.226;2022-11-20T00:46:20;7.65;;;4.22;;
22652;SDS011;11493;43.344;26.226;2022-11-20T00:48:49;8.60;;;4.13;;
22652;SDS011;11493;43.344;26.226;2022-11-20T00:51:17;26.65;;;6.05;;
22652;SDS011;11493;43.344;26.226;2022-11-20T00:53:47;12.53;;;4.20;;
22652;SDS011;11493;43.344;26.226;2022-11-20T00:56:16;9.60;;;4.72;;
22652;SDS011;11493;43.344;26.226;2022-11-20T00:58:47;12.43;;;4.32;;
22652;SDS011;11493;43.344;26.226;2022-11-20T01:01:17;14.00;;;4.68;;
22652;SDS011;11493;43.344;26.226;2022-11-20T01:03:47;13.87;;;4.10;;
22652;SDS011;11493;43.344;26.226;2022-11-20T01:08:44;12.40;;;4.55;;
22652;SDS011;11493;43.344;26.226;2022-11-20T01:11:16;18.38;;;4.07;;
22652;SDS011;11493;43.344;26.226;2022-11-20T01:13:50;8.90;;;3.95;;
22652;SDS011;11493;43.344;26.226;2022-11-20T01:16:19;13.70;;;4.60;;
22652;SDS011;11493;43.344;26.226;2022-11-20T01:18:53;6.97;;;3.10;;
22652;SDS011;11493;43.344;26.226;2022-11-20T01:21:27;13.55;;;3.95;;
22652;SDS011;11493;43.344;26.226;2022-11-20T01:23:59;13.27;;;4.18;;
22652;SDS011;11493;43.344;26.226;2022-11-20T01:26:28;8.63;;;4.18;;
22652;SDS011;11493;43.344;26.226;2022-11-20T01:28:57;12.35;;;3.83;;
22652;SDS011;11493;43.344;26.226;2022-11-20T01:31:27;6.60;;;3.50;;
22652;SDS011;11493;43.344;26.226;2022-11-20T01:33:57;9.18;;;3.00;;
22652;SDS011;11493;43.344;26.226;2022-11-20T01:36:27;9.85;;;3.05;;
22652;SDS011;11493;43.344;26.226;2022-11-20T01:38:57;10.48;;;4.65;;
22652;SDS011;11493;43.344;26.226;2022-11-20T01:41:28;14.38;;;3.60;;
22652;SDS011;11493;43.344;26.226;2022-11-20T01:44:16;8.95;;;3.30;;
22652;SDS011;11493;43.344;26.226;2022-11-20T01:46:53;9.70;;;3.38;;
22652;SDS011;11493;43.344;26.226;2022-11-20T01:49:31;8.18;;;3.05;;
22652;SDS011;11493;43.344;26.226;2022-11-20T01:52:05;13.82;;;2.92;;
22652;SDS011;11493;43.344;26.226;2022-11-20T01:54:39;14.15;;;3.17;;
22652;SDS011;11493;43.344;26.226;2022-11-20T01:57:14;8.95;;;3.10;;
22652;SDS011;11493;43.344;26.226;2022-11-20T01:59:51;8.57;;;2.70;;
22652;SDS011;11493;43.344;26.226;2022-11-20T02:02:43;14.60;;;3.75;;
22652;SDS011;11493;43.344;26.226;2022-11-20T02:05:19;10.15;;;2.65;;
22652;SDS011;11493;43.344;26.226;2022-11-20T02:07:50;14.00;;;3.75;;
22652;SDS011;11493;43.344;26.226;2022-11-20T02:10:21;10.47;;;3.70;;
22652;SDS011;11493;43.344;26.226;2022-11-20T02:12:48;9.90;;;3.30;;
22652;SDS011;11493;43.344;26.226;2022-11-20T02:15:34;11.55;;;2.90;;
22652;SDS011;11493;43.344;26.226;2022-11-20T02:18:01;15.38;;;2.83;;
22652;SDS011;11493;43.344;26.226;2022-11-20T02:20:32;8.97;;;3.03;;
22652;SDS011;11493;43.344;26.226;2022-11-20T02:23:02;11.80;;;3.20;;
22652;SDS011;11493;43.344;26.226;2022-11-20T02:25:34;12.68;;;3.65;;
22652;SDS011;11493;43.344;26.226;2022-11-20T02:28:05;14.30;;;3.60;;
22652;SDS011;11493;43.344;26.226;2022-11-20T02:30:32;8.77;;;3.08;;
22652;SDS011;11493;43.344;26.226;2022-11-20T02:33:00;7.97;;;2.88;;
22652;SDS011;11493;43.344;26.226;2022-11-20T02:37:59;12.45;;;3.28;;
22652;SDS011;11493;43.344;26.226;2022-11-20T02:40:29;11.15;;;4.03;;
22652;SDS011;11493;43.344;26.226;2022-11-20T02:42:56;8.20;;;3.10;;
22652;SDS011;11493;43.344;26.226;2022-11-20T02:45:24;11.88;;;3.70;;
22652;SDS011;11493;43.344;26.226;2022-11-20T02:47:52;11.48;;;2.88;;
22652;SDS011;11493;43.344;26.226;2022-11-20T02:50:19;12.23;;;3.50;;
22652;SDS011;11493;43.344;26.226;2022-11-20T02:52:47;10.48;;;3.00;;
22652;SDS011;11493;43.344;26.226;2022-11-20T02:55:14;10.05;;;2.83;;
22652;SDS011;11493;43.344;26.226;2022-11-20T02:57:41;8.25;;;2.95;;
22652;SDS011;11493;43.344;26.226;2022-11-20T03:00:09;11.18;;;3.75;;
22652;SDS011;11493;43.344;26.226;2022-11-20T03:02:37;12.88;;;3.55;;
22652;SDS011;11493;43.344;26.226;2022-11-20T03:05:04;9.00;;;3.17;;
22652;SDS011;11493;43.344;26.226;2022-11-20T03:07:33;9.95;;;3.25;;
22652;SDS011;11493;43.344;26.226;2022-11-20T03:10:05;7.35;;;2.30;;
22652;SDS011;11493;43.344;26.226;2022-11-20T03:12:32;5.00;;;2.63;;
22652;SDS011;11493;43.344;26.226;2022-11-20T03:15:00;9.43;;;3.13;;
22652;SDS011;11493;43.344;26.226;2022-11-20T03:17:27;8.38;;;3.33;;
22652;SDS011;11493;43.344;26.226;2022-11-20T03:19:57;8.68;;;3.22;;
22652;SDS011;11493;43.344;26.226;2022-11-20T03:22:25;12.50;;;2.85;;
22652;SDS011;11493;43.344;26.226;2022-11-20T03:24:55;9.55;;;3.05;;
22652;SDS011;11493;43.344;26.226;2022-11-20T03:27:22;11.40;;;2.83;;
22652;SDS011;11493;43.344;26.226;2022-11-20T03:29:50;7.63;;;2.88;;
22652;SDS011;11493;43.344;26.226;2022-11-20T03:32:17;10.68;;;2.53;;
22652;SDS011;11493;43.344;26.226;2022-11-20T03:34:44;14.10;;;3.67;;
22652;SDS011;11493;43.344;26.226;2022-11-20T03:37:11;11.40;;;2.83;;
22652;SDS011;11493;43.344;26.226;2022-11-20T03:39:39;11.90;;;3.78;;
22652;SDS011;11493;43.344;26.226;2022-11-20T03:42:06;8.73;;;2.80;;
22652;SDS011;11493;43.344;26.226;2022-11-20T03:44:53;9.68;;;3.25;;
22652;SDS011;11493;43.344;26.226;2022-11-20T03:47:21;7.32;;;3.13;;
22652;SDS011;11493;43.344;26.226;2022-11-20T03:49:49;11.93;;;4.32;;
22652;SDS011;11493;43.344;26.226;2022-11-20T03:52:16;11.95;;;3.88;;
22652;SDS011;11493;43.344;26.226;2022-11-20T03:54:44;8.02;;;3.15;;
22652;SDS011;11493;43.344;26.226;2022-11-20T03:57:11;10.82;;;3.55;;
22652;SDS011;11493;43.344;26.226;2022-11-20T03:59:41;10.20;;;3.95;;
22652;SDS011;11493;43.344;26.226;2022-11-20T04:02:08;7.18;;;3.60;;
22652;SDS011;11493;43.344;26.226;2022-11-20T04:04:35;9.40;;;3.03;;
22652;SDS011;11493;43.344;26.226;2022-11-20T04:07:02;7.07;;;2.60;;
22652;SDS011;11493;43.344;26.226;2022-11-20T04:09:30;5.63;;;3.08;;
22652;SDS011;11493;43.344;26.226;2022-11-20T04:11:57;8.63;;;4.07;;
22652;SDS011;11493;43.344;26.226;2022-11-20T04:14:24;15.57;;;3.40;;
22652;SDS011;11493;43.344;26.226;2022-11-20T04:16:51;8.05;;;3.15;;
22652;SDS011;11493;43.344;26.226;2022-11-20T04:19:18;9.93;;;2.97;;
22652;SDS011;11493;43.344;26.226;2022-11-20T04:21:46;7.32;;;3.20;;
22652;SDS011;11493;43.344;26.226;2022-11-20T04:24:13;11.60;;;3.05;;
22652;SDS011;11493;43.344;26.226;2022-11-20T04:26:43;5.90;;;2.88;;
22652;SDS011;11493;43.344;26.226;2022-11-20T04:29:11;7.88;;;2.78;;
22652;SDS011;11493;43.344;26.226;2022-11-20T04:31:38;11.90;;;3.60;;
22652;SDS011;11493;43.344;26.226;2022-11-20T04:34:06;12.27;;;2.85;;
22652;SDS011;11493;43.344;26.226;2022-11-20T04:36:34;11.18;;;3.15;;
22652;SDS011;11493;43.344;26.226;2022-11-20T04:39:03;12.77;;;3.83;;
22652;SDS011;11493;43.344;26.226;2022-11-20T04:41:33;10.85;;;3.50;;
22652;SDS011;11493;43.344;26.226;2022-11-20T04:44:02;7.22;;;2.90;;
22652;SDS011;11493;43.344;26.226;2022-11-20T04:46:33;11.73;;;2.75;;
22652;SDS011;11493;43.344;26.226;2022-11-20T04:49:03;12.70;;;3.10;;
22652;SDS011;11493;43.344;26.226;2022-11-20T04:51:31;8.98;;;3.00;;
22652;SDS011;11493;43.344;26.226;2022-11-20T04:53:59;9.10;;;2.63;;
22652;SDS011;11493;43.344;26.226;2022-11-20T04:56:26;12.88;;;3.50;;
22652;SDS011;11493;43.344;26.226;2022-11-20T04:58:53;8.18;;;2.35;;
22652;SDS011;11493;43.344;26.226;2022-11-20T05:01:21;4.78;;;2.45;;
22652;SDS011;11493;43.344;26.226;2022-11-20T05:03:50;13.65;;;3.08;;
22652;SDS011;11493;43.344;26.226;2022-11-20T05:06:18;9.23;;;3.28;;
22652;SDS011;11493;43.344;26.226;2022-11-20T05:08:47;7.70;;;2.72;;
22652;SDS011;11493;43.344;26.226;2022-11-20T05:11:15;8.90;;;3.03;;
22652;SDS011;11493;43.344;26.226;2022-11-20T05:13:44;9.75;;;2.60;;
22652;SDS011;11493;43.344;26.226;2022-11-20T05:16:12;8.02;;;3.20;;
22652;SDS011;11493;43.344;26.226;2022-11-20T05:18:41;9.35;;;2.75;;
22652;SDS011;11493;43.344;26.226;2022-11-20T05:21:09;9.25;;;3.28;;
22652;SDS011;11493;43.344;26.226;2022-11-20T05:23:37;9.55;;;2.95;;
22652;SDS011;11493;43.344;26.226;2022-11-20T05:26:05;10.40;;;2.85;;
22652;SDS011;11493;43.344;26.226;2022-11-20T05:28:35;6.53;;;2.60;;
22652;SDS011;11493;43.344;26.226;2022-11-20T05:31:10;5.55;;;2.55;;
22652;SDS011;11493;43.344;26.226;2022-11-20T05:33:39;8.05;;;3.05;;
22652;SDS011;11493;43.344;26.226;2022-11-20T05:36:10;12.18;;;3.33;;
22652;SDS011;11493;43.344;26.226;2022-11-20T05:38:40;4.50;;;2.75;;
22652;SDS011;11493;43.344;26.226;2022-11-20T05:41:09;15.27;;;3.40;;
22652;SDS011;11493;43.344;26.226;2022-11-20T05:43:38;9.20;;;2.90;;
22652;SDS011;11493;43.344;26.226;2022-11-20T05:46:08;10.93;;;3.00;;
22652;SDS011;11493;43.344;26.226;2022-11-20T05:48:37;10.20;;;2.97;;
22652;SDS011;11493;43.344;26.226;2022-11-20T05:51:07;9.52;;;2.80;;
22652;SDS011;11493;43.344;26.226;2022-11-20T05:53:36;8.13;;;2.80;;
22652;SDS011;11493;43.344;26.226;2022-11-20T05:56:11;7.90;;;2.58;;
22652;SDS011;11493;43.344;26.226;2022-11-20T05:58:41;7.60;;;3.05;;
22652;SDS011;11493;43.344;26.226;2022-11-20T06:01:17;4.93;;;2.92;;
22652;SDS011;11493;43.344;26.226;2022-11-20T06:03:46;12.18;;;3.20;;
22652;SDS011;11493;43.344;26.226;2022-11-20T06:06:16;4.88;;;2.70;;
22652;SDS011;11493;43.344;26.226;2022-11-20T06:08:47;6.75;;;2.90;;
22652;SDS011;11493;43.344;26.226;2022-11-20T06:11:15;11.05;;;4.28;;
22652;SDS011;11493;43.344;26.226;2022-11-20T06:13:47;9.45;;;4.28;;
22652;SDS011;11493;43.344;26.226;2022-11-20T06:16:15;12.90;;;4.03;;
22652;SDS011;11493;43.344;26.226;2022-11-20T06:18:45;9.10;;;4.82;;
22652;SDS011;11493;43.344;26.226;2022-11-20T06:21:14;12.90;;;4.97;;
22652;SDS011;11493;43.344;26.226;2022-11-20T06:23:45;13.80;;;4.40;;
22652;SDS011;11493;43.344;26.226;2022-11-20T06:26:17;8.63;;;4.43;;
22652;SDS011;11493;43.344;26.226;2022-11-20T06:28:46;13.40;;;4.28;;
22652;SDS011;11493;43.344;26.226;2022-11-20T06:31:15;11.13;;;3.95;;
22652;SDS011;11493;43.344;26.226;2022-11-20T06:33:44;16.70;;;4.18;;
22652;SDS011;11493;43.344;26.226;2022-11-20T06:36:13;14.70;;;4.72;;
22652;SDS011;11493;43.344;26.226;2022-11-20T06:38:45;15.20;;;4.65;;
22652;SDS011;11493;43.344;26.226;2022-11-20T06:41:16;9.35;;;4.07;;
22652;SDS011;11493;43.344;26.226;2022-11-20T06:43:46;15.60;;;3.90;;
22652;SDS011;11493;43.344;26.226;2022-11-20T06:46:16;17.27;;;5.55;;
22652;SDS011;11493;43.344;26.226;2022-11-20T06:48:45;12.05;;;5.43;;
22652;SDS011;11493;43.344;26.226;2022-11-20T06:51:14;21.42;;;8.63;;
22652;SDS011;11493;43.344;26.226;2022-11-20T06:53:42;33.67;;;18.02;;
22652;SDS011;11493;43.344;26.226;2022-11-20T06:56:09;21.40;;;10.23;;
22652;SDS011;11493;43.344;26.226;2022-11-20T06:58:37;10.73;;;5.57;;
22652;SDS011;11493;43.344;26.226;2022-11-20T07:01:12;16.05;;;7.53;;
22652;SDS011;11493;43.344;26.226;2022-11-20T07:03:42;17.85;;;6.45;;
22652;SDS011;11493;43.344;26.226;2022-11-20T07:06:11;15.27;;;5.55;;
22652;SDS011;11493;43.344;26.226;2022-11-20T07:08:38;12.73;;;6.18;;
22652;SDS011;11493;43.344;26.226;2022-11-20T07:11:06;12.48;;;7.70;;
22652;SDS011;11493;43.344;26.226;2022-11-20T07:13:34;14.05;;;6.20;;
22652;SDS011;11493;43.344;26.226;2022-11-20T07:16:03;14.35;;;6.95;;
22652;SDS011;11493;43.344;26.226;2022-11-20T07:18:32;11.35;;;5.60;;
22652;SDS011;11493;43.344;26.226;2022-11-20T07:21:01;13.82;;;6.18;;
22652;SDS011;11493;43.344;26.226;2022-11-20T07:23:32;16.70;;;7.32;;
22652;SDS011;11493;43.344;26.226;2022-11-20T07:26:06;13.40;;;5.97;;
22652;SDS011;11493;43.344;26.226;2022-11-20T07:28:35;9.88;;;4.72;;
22652;SDS011;11493;43.344;26.226;2022-11-20T07:31:03;9.10;;;4.00;;
22652;SDS011;11493;43.344;26.226;2022-11-20T07:33:31;10.23;;;3.70;;
22652;SDS011;11493;43.344;26.226;2022-11-20T07:36:01;5.13;;;2.78;;
22652;SDS011;11493;43.344;26.226;2022-11-20T07:38:29;14.75;;;3.97;;
22652;SDS011;11493;43.344;26.226;2022-11-20T07:40:58;11.23;;;3.70;;
22652;SDS011;11493;43.344;26.226;2022-11-20T07:43:28;9.68;;;2.60;;
22652;SDS011;11493;43.344;26.226;2022-11-20T07:45:57;5.60;;;2.47;;
22652;SDS011;11493;43.344;26.226;2022-11-20T07:48:28;10.52;;;2.90;;
22652;SDS011;11493;43.344;26.226;2022-11-20T07:50:56;6.78;;;2.55;;
22652;SDS011;11493;43.344;26.226;2022-11-20T07:53:24;8.65;;;3.38;;
22652;SDS011;11493;43.344;26.226;2022-11-20T07:55:52;7.60;;;3.05;;
22652;SDS011;11493;43.344;26.226;2022-11-20T07:58:20;9.57;;;3.28;;
22652;SDS011;11493;43.344;26.226;2022-11-20T08:00:48;6.05;;;4.60;;
22652;SDS011;11493;43.344;26.226;2022-11-20T08:03:18;8.18;;;4.90;;
22652;SDS011;11493;43.344;26.226;2022-11-20T08:05:51;11.45;;;4.82;;
22652;SDS011;11493;43.344;26.226;2022-11-20T08:08:19;8.90;;;5.38;;
22652;SDS011;11493;43.344;26.226;2022-11-20T08:10:50;9.82;;;5.95;;
22652;SDS011;11493;43.344;26.226;2022-11-20T08:13:17;8.82;;;6.20;;
22652;SDS011;11493;43.344;26.226;2022-11-20T08:16:04;10.45;;;7.20;;
22652;SDS011;11493;43.344;26.226;2022-11-20T08:18:34;9.27;;;7.03;;
22652;SDS011;11493;43.344;26.226;2022-11-20T08:21:02;11.50;;;7.82;;
22652;SDS011;11493;43.344;26.226;2022-11-20T08:23:31;9.50;;;7.57;;
22652;SDS011;11493;43.344;26.226;2022-11-20T08:25:59;15.38;;;8.82;;
22652;SDS011;11493;43.344;26.226;2022-11-20T08:28:26;14.25;;;9.35;;
22652;SDS011;11493;43.344;26.226;2022-11-20T08:30:57;15.40;;;9.77;;
22652;SDS011;11493;43.344;26.226;2022-11-20T08:33:26;15.82;;;11.50;;
22652;SDS011;11493;43.344;26.226;2022-11-20T08:35:57;19.23;;;12.15;;
22652;SDS011;11493;43.344;26.226;2022-11-20T08:38:29;20.35;;;14.15;;
22652;SDS011;11493;43.344;26.226;2022-11-20T08:41:00;15.10;;;11.35;;
22652;SDS011;11493;43.344;26.226;2022-11-20T08:43:47;22.00;;;11.98;;
22652;SDS011;11493;43.344;26.226;2022-11-20T08:46:14;18.63;;;13.70;;
22652;SDS011;11493;43.344;26.226;2022-11-20T08:48:42;21.10;;;12.52;;
22652;SDS011;11493;43.344;26.226;2022-11-20T08:51:11;18.95;;;12.80;;
22652;SDS011;11493;43.344;26.226;2022-11-20T08:53:42;15.85;;;13.30;;
22652;SDS011;11493;43.344;26.226;2022-11-20T08:56:09;25.73;;;16.50;;
22652;SDS011;11493;43.344;26.226;2022-11-20T08:58:37;22.95;;;15.95;;
22652;SDS011;11493;43.344;26.226;2022-11-20T09:01:25;23.45;;;15.95;;
22652;SDS011;11493;43.344;26.226;2022-11-20T09:03:57;27.58;;;17.17;;
22652;SDS011;11493;43.344;26.226;2022-11-20T09:06:24;19.55;;;13.25;;
22652;SDS011;11493;43.344;26.226;2022-11-20T09:08:52;19.55;;;13.70;;
22652;SDS011;11493;43.344;26.226;2022-11-20T09:11:20;19.88;;;15.45;;
22652;SDS011;11493;43.344;26.226;2022-11-20T09:13:50;21.15;;;15.57;;
22652;SDS011;11493;43.344;26.226;2022-11-20T09:16:18;20.45;;;14.10;;
22652;SDS011;11493;43.344;26.226;2022-11-20T09:18:46;26.55;;;18.23;;
22652;SDS011;11493;43.344;26.226;2022-11-20T09:21:32;32.55;;;19.02;;
22652;SDS011;11493;43.344;26.226;2022-11-20T09:24:00;32.28;;;19.60;;
22652;SDS011;11493;43.344;26.226;2022-11-20T09:26:30;31.38;;;22.02;;
22652;SDS011;11493;43.344;26.226;2022-11-20T09:28:57;50.00;;;32.65;;
22652;SDS011;11493;43.344;26.226;2022-11-20T09:31:25;46.15;;;29.95;;
22652;SDS011;11493;43.344;26.226;2022-11-20T09:33:53;33.97;;;22.77;;
22652;SDS011;11493;43.344;26.226;2022-11-20T09:36:21;33.72;;;22.52;;
22652;SDS011;11493;43.344;26.226;2022-11-20T09:38:48;28.48;;;19.35;;
22652;SDS011;11493;43.344;26.226;2022-11-20T09:44:35;27.13;;;18.27;;
22652;SDS011;11493;43.344;26.226;2022-11-20T09:52:42;27.90;;;19.52;;
22652;SDS011;11493;43.344;26.226;2022-11-20T09:55:37;37.90;;;21.77;;
22652;SDS011;11493;43.344;26.226;2022-11-20T09:58:06;27.92;;;21.02;;
22652;SDS011;11493;43.344;26.226;2022-11-20T10:00:39;29.15;;;20.85;;
22652;SDS011;11493;43.344;26.226;2022-11-20T10:05:54;30.20;;;21.83;;
22652;SDS011;11493;43.344;26.226;2022-11-20T10:11:04;29.35;;;20.17;;
22652;SDS011;11493;43.344;26.226;2022-11-20T10:19:07;29.88;;;21.25;;
22652;SDS011;11493;43.344;26.226;2022-11-20T10:24:19;28.30;;;17.25;;
22652;SDS011;11493;43.344;26.226;2022-11-20T10:29:32;27.38;;;19.02;;
22652;SDS011;11493;43.344;26.226;2022-11-20T10:32:03;26.33;;;18.02;;
22652;SDS011;11493;43.344;26.226;2022-11-20T10:37:20;25.40;;;17.42;;
22652;SDS011;11493;43.344;26.226;2022-11-20T10:43:01;26.50;;;16.27;;
22652;SDS011;11493;43.344;26.226;2022-11-20T10:48:26;27.60;;;17.40;;
22652;SDS011;11493;43.344;26.226;2022-11-20T10:56:52;23.27;;;16.75;;
22652;SDS011;11493;43.344;26.226;2022-11-20T10:59:35;24.90;;;16.50;;
22652;SDS011;11493;43.344;26.226;2022-11-20T11:02:51;24.73;;;16.85;;
22652;SDS011;11493;43.344;26.226;2022-11-20T11:08:05;26.25;;;17.85;;
22652;SDS011;11493;43.344;26.226;2022-11-20T11:10:53;26.38;;;18.20;;
22652;SDS011;11493;43.344;26.226;2022-11-20T11:13:28;24.45;;;17.67;;
22652;SDS011;11493;43.344;26.226;2022-11-20T11:15:57;22.40;;;17.00;;
22652;SDS011;11493;43.344;26.226;2022-11-20T11:18:31;22.83;;;16.08;;
22652;SDS011;11493;43.344;26.226;2022-11-20T11:21:02;26.42;;;17.55;;
22652;SDS011;11493;43.344;26.226;2022-11-20T11:23:38;29.98;;;20.23;;
22652;SDS011;11493;43.344;26.226;2022-11-20T11:26:19;28.05;;;19.38;;
22652;SDS011;11493;43.344;26.226;2022-11-20T11:29:01;25.83;;;19.00;;
22652;SDS011;11493;43.344;26.226;2022-11-20T11:31:32;33.05;;;20.42;;
22652;SDS011;11493;43.344;26.226;2022-11-20T11:36:33;28.98;;;17.75;;
22652;SDS011;11493;43.344;26.226;2022-11-20T11:39:02;24.02;;;15.57;;
22652;SDS011;11493;43.344;26.226;2022-11-20T11:41:32;19.58;;;15.05;;
22652;SDS011;11493;43.344;26.226;2022-11-20T11:44:15;27.33;;;15.48;;
22652;SDS011;11493;43.344;26.226;2022-11-20T11:47:04;24.35;;;16.20;;
22652;SDS011;11493;43.344;26.226;2022-11-20T11:49:39;30.67;;;17.08;;
22652;SDS011;11493;43.344;26.226;2022-11-20T11:55:09;25.60;;;17.52;;
22652;SDS011;11493;43.344;26.226;2022-11-20T12:00:16;24.63;;;16.10;;
22652;SDS011;11493;43.344;26.226;2022-11-20T12:08:16;25.45;;;16.65;;
22652;SDS011;11493;43.344;26.226;2022-11-20T12:16:00;29.50;;;16.83;;
22652;SDS011;11493;43.344;26.226;2022-11-20T12:18:31;25.73;;;16.77;;
22652;SDS011;11493;43.344;26.226;2022-11-20T12:21:10;25.50;;;16.15;;
22652;SDS011;11493;43.344;26.226;2022-11-20T12:23:59;25.50;;;16.05;;
22652;SDS011;11493;43.344;26.226;2022-11-20T12:41:05;42.08;;;24.25;;
22652;SDS011;11493;43.344;26.226;2022-11-20T12:50:18;35.65;;;21.45;;
22652;SDS011;11493;43.344;26.226;2022-11-20T12:53:05;27.38;;;19.77;;
22652;SDS011;11493;43.344;26.226;2022-11-20T12:58:50;33.05;;;21.27;;
22652;SDS011;11493;43.344;26.226;2022-11-20T13:04:25;23.70;;;15.90;;
22652;SDS011;11493;43.344;26.226;2022-11-20T13:07:16;20.42;;;15.88;;
22652;SDS011;11493;43.344;26.226;2022-11-20T13:09:46;24.48;;;17.40;;
22652;SDS011;11493;43.344;26.226;2022-11-20T13:12:19;23.35;;;16.63;;
22652;SDS011;11493;43.344;26.226;2022-11-20T13:17:54;38.38;;;21.15;;
22652;SDS011;11493;43.344;26.226;2022-11-20T13:20:25;42.30;;;23.15;;
22652;SDS011;11493;43.344;26.226;2022-11-20T13:22:56;39.92;;;23.52;;
22652;SDS011;11493;43.344;26.226;2022-11-20T13:28:05;48.58;;;26.65;;
22652;SDS011;11493;43.344;26.226;2022-11-20T13:30:52;30.63;;;20.35;;
22652;SDS011;11493;43.344;26.226;2022-11-20T13:33:23;32.10;;;17.98;;
22652;SDS011;11493;43.344;26.226;2022-11-20T13:36:00;25.10;;;18.52;;
22652;SDS011;11493;43.344;26.226;2022-11-20T13:44:44;39.90;;;22.30;;
22652;SDS011;11493;43.344;26.226;2022-11-20T13:46:58;32.30;;;21.45;;
22652;SDS011;11493;43.344;26.226;2022-11-20T13:49:38;30.42;;;19.55;;
22652;SDS011;11493;43.344;26.226;2022-11-20T13:55:28;63.97;;;39.83;;
22652;SDS011;11493;43.344;26.226;2022-11-20T13:58:12;48.30;;;29.45;;
22652;SDS011;11493;43.344;26.226;2022-11-20T14:00:51;38.17;;;24.17;;
22652;SDS011;11493;43.344;26.226;2022-11-20T14:03:24;35.40;;;24.10;;
22652;SDS011;11493;43.344;26.226;2022-11-20T14:06:20;62.70;;;39.42;;
22652;SDS011;11493;43.344;26.226;2022-11-20T14:08:50;35.85;;;21.38;;
22652;SDS011;11493;43.344;26.226;2022-11-20T14:11:20;29.73;;;20.33;;
22652;SDS011;11493;43.344;26.226;2022-11-20T14:16:44;31.95;;;18.98;;
22652;SDS011;11493;43.344;26.226;2022-11-20T14:21:48;29.40;;;19.45;;
22652;SDS011;11493;43.344;26.226;2022-11-20T14:24:21;25.40;;;20.02;;
22652;SDS011;11493;43.344;26.226;2022-11-20T14:26:58;24.77;;;18.48;;
22652;SDS011;11493;43.344;26.226;2022-11-20T14:29:29;31.58;;;18.95;;
22652;SDS011;11493;43.344;26.226;2022-11-20T14:32:02;23.67;;;15.82;;
22652;SDS011;11493;43.344;26.226;2022-11-20T14:34:33;20.67;;;17.08;;
22652;SDS011;11493;43.344;26.226;2022-11-20T14:37:13;24.80;;;17.48;;
22652;SDS011;11493;43.344;26.226;2022-11-20T14:39:53;26.83;;;18.10;;
22652;SDS011;11493;43.344;26.226;2022-11-20T14:42:23;25.20;;;16.45;;
22652;SDS011;11493;43.344;26.226;2022-11-20T14:44:58;23.90;;;15.65;;
22652;SDS011;11493;43.344;26.226;2022-11-20T14:47:27;19.80;;;16.67;;
22652;SDS011;11493;43.344;26.226;2022-11-20T14:49:57;26.77;;;16.63;;
22652;SDS011;11493;43.344;26.226;2022-11-20T14:52:28;25.48;;;17.55;;
22652;SDS011;11493;43.344;26.226;2022-11-20T14:54:57;25.83;;;19.42;;
22652;SDS011;11493;43.344;26.226;2022-11-20T14:57:29;23.92;;;17.35;;
22652;SDS011;11493;43.344;26.226;2022-11-20T15:02:34;31.30;;;20.85;;
22652;SDS011;11493;43.344;26.226;2022-11-20T15:05:07;34.22;;;20.98;;
22652;SDS011;11493;43.344;26.226;2022-11-20T15:07:36;31.58;;;21.85;;
22652;SDS011;11493;43.344;26.226;2022-11-20T15:10:23;53.10;;;35.00;;
22652;SDS011;11493;43.344;26.226;2022-11-20T15:13:05;43.28;;;30.92;;
22652;SDS011;11493;43.344;26.226;2022-11-20T15:15:53;40.05;;;26.33;;
22652;SDS011;11493;43.344;26.226;2022-11-20T15:18:38;42.17;;;24.03;;
22652;SDS011;11493;43.344;26.226;2022-11-20T15:21:12;46.63;;;27.30;;
22652;SDS011;11493;43.344;26.226;2022-11-20T15:23:40;42.17;;;23.52;;
22652;SDS011;11493;43.344;26.226;2022-11-20T15:26:08;40.92;;;24.20;;
22652;SDS011;11493;43.344;26.226;2022-11-20T15:28:46;41.92;;;27.00;;
22652;SDS011;11493;43.344;26.226;2022-11-20T15:31:19;43.13;;;26.02;;
22652;SDS011;11493;43.344;26.226;2022-11-20T15:33:49;55.95;;;22.63;;
22652;SDS011;11493;43.344;26.226;2022-11-20T15:36:28;51.53;;;25.95;;
22652;SDS011;11493;43.344;26.226;2022-11-20T15:38:57;36.25;;;23.17;;
22652;SDS011;11493;43.344;26.226;2022-11-20T15:41:30;40.55;;;24.42;;
22652;SDS011;11493;43.344;26.226;2022-11-20T15:43:57;51.17;;;29.05;;
22652;SDS011;11493;43.344;26.226;2022-11-20T15:46:28;57.40;;;30.95;;
22652;SDS011;11493;43.344;26.226;2022-11-20T15:48:59;38.53;;;26.80;;
22652;SDS011;11493;43.344;26.226;2022-11-20T15:54:13;34.53;;;20.70;;
22652;SDS011;11493;43.344;26.226;2022-11-20T15:56:44;26.08;;;15.65;;
22652;SDS011;11493;43.344;26.226;2022-11-20T15:59:11;21.23;;;14.77;;
22652;SDS011;11493;43.344;26.226;2022-11-20T16:01:38;49.08;;;37.00;;
22652;SDS011;11493;43.344;26.226;2022-11-20T16:04:13;23.15;;;14.10;;
22652;SDS011;11493;43.344;26.226;2022-11-20T16:06:42;17.35;;;10.52;;
22652;SDS011;11493;43.344;26.226;2022-11-20T16:09:09;18.17;;;11.13;;
22652;SDS011;11493;43.344;26.226;2022-11-20T16:11:37;16.15;;;12.13;;
22652;SDS011;11493;43.344;26.226;2022-11-20T16:14:05;34.78;;;22.85;;
22652;SDS011;11493;43.344;26.226;2022-11-20T16:16:55;36.08;;;23.90;;
22652;SDS011;11493;43.344;26.226;2022-11-20T16:19:22;31.38;;;21.77;;
22652;SDS011;11493;43.344;26.226;2022-11-20T16:21:49;28.95;;;19.02;;
22652;SDS011;11493;43.344;26.226;2022-11-20T16:24:16;32.78;;;22.92;;
22652;SDS011;11493;43.344;26.226;2022-11-20T16:26:43;56.35;;;34.53;;
22652;SDS011;11493;43.344;26.226;2022-11-20T16:29:11;59.00;;;39.90;;
22652;SDS011;11493;43.344;26.226;2022-11-20T16:31:44;59.17;;;35.28;;
22652;SDS011;11493;43.344;26.226;2022-11-20T16:34:15;62.08;;;40.75;;
22652;SDS011;11493;43.344;26.226;2022-11-20T16:36:43;55.25;;;35.55;;
22652;SDS011;11493;43.344;26.226;2022-11-20T16:39:11;50.42;;;33.08;;
22652;SDS011;11493;43.344;26.226;2022-11-20T16:41:44;73.20;;;54.20;;